Time;durP1;ratioP1;P1;durP2;ratioP2;P2;SDS_P1;SDS_P2;PMS_P1;PMS_P2;Temp;Humidity;BMP_temperature;BMP_pressure;BME280_temperature;BME280_humidity;BME280_pressure;Samples;Min_cycle;Max_cycle;Signal;HPM_P1;HPM_P2
2022/08/16 00:02:23;;;;;;;12.00;9.20;;;20.20;97.00;;;;;;2617170;54;20123;-76
2022/08/16 00:08:14;;;;;;;9.27;8.47;;;20.10;99.20;;;;;;2616686;54;20657;-76
2022/08/16 00:14:05;;;;;;;9.77;8.97;;;20.00;99.90;;;;;;2616685;54;20387;-76
2022/08/16 00:19:54;;;;;;;9.87;9.10;;;20.00;99.90;;;;;;2616791;54;20394;-79
2022/08/16 00:25:43;;;;;;;8.80;8.20;;;19.90;99.90;;;;;;2616402;54;20399;-75
2022/08/16 00:34:55;;;;;;;9.80;9.17;;;20.10;99.90;;;;;;2616700;54;20435;-74
2022/08/16 00:40:49;;;;;;;8.90;8.30;;;20.20;99.90;;;;;;2616678;54;21053;-75
2022/08/16 00:52:51;;;;;;;10.17;9.33;;;20.30;99.90;;;;;;2616713;54;20405;-75
2022/08/16 00:58:43;;;;;;;9.53;8.73;;;20.40;99.90;;;;;;2616554;54;20114;-75
2022/08/16 01:04:31;;;;;;;9.63;8.80;;;20.40;99.90;;;;;;2617347;31;20828;-77
2022/08/16 01:10:24;;;;;;;8.73;8.13;;;20.30;99.90;;;;;;2616573;54;20119;-77
2022/08/16 01:16:21;;;;;;;10.53;9.20;;;20.40;99.90;;;;;;2616193;54;20380;-76
2022/08/16 01:28:47;;;;;;;10.57;9.67;;;20.20;99.90;;;;;;2614699;54;20376;-75
2022/08/16 01:35:11;;;;;;;9.90;9.10;;;20.20;99.90;;;;;;2614522;54;20442;-76
2022/08/16 01:38:14;;;;;;;9.20;8.40;;;20.20;99.90;;;;;;2614617;47;20402;-75
2022/08/16 01:44:01;;;;;;;10.43;9.67;;;20.10;99.90;;;;;;2614838;54;20408;-79
2022/08/16 01:49:48;;;;;;;9.90;9.07;;;20.20;99.90;;;;;;2615329;54;20417;-80
2022/08/16 01:55:37;;;;;;;10.13;9.33;;;20.20;99.90;;;;;;2615349;54;20169;-75
2022/08/16 02:01:26;;;;;;;8.60;7.97;;;20.10;99.90;;;;;;2615398;54;20405;-75
2022/08/16 02:07:17;;;;;;;9.70;8.80;;;20.10;99.90;;;;;;2616372;54;20565;-78
2022/08/16 02:13:06;;;;;;;9.17;8.47;;;20.20;99.90;;;;;;2616454;46;20402;-75
2022/08/16 02:18:54;;;;;;;11.40;8.70;;;20.20;99.90;;;;;;2616987;39;20761;-76
2022/08/16 02:24:42;;;;;;;9.83;8.97;;;20.10;99.90;;;;;;2616464;54;20253;-84
2022/08/16 02:30:31;;;;;;;9.70;8.80;;;19.90;99.90;;;;;;2616158;54;20403;-78
2022/08/16 02:33:34;;;;;;;9.40;8.50;;;19.90;99.90;;;;;;2615466;47;20411;-78
2022/08/16 02:36:00;;;;;;;9.53;8.80;;;19.90;99.90;;;;;;2615966;54;20408;-75
2022/08/16 02:41:49;;;;;;;9.93;8.90;;;19.80;99.90;;;;;;2615998;54;20171;-77
2022/08/16 02:47:37;;;;;;;9.30;8.50;;;19.70;99.90;;;;;;2616603;54;20397;-79
2022/08/16 02:53:25;;;;;;;10.57;9.70;;;19.50;99.90;;;;;;2616174;54;20166;-78
2022/08/16 02:56:11;;;;;;;9.97;9.07;;;19.50;99.90;;;;;;2616687;54;20416;-78
2022/08/16 02:58:37;;;;;;;10.20;9.30;;;19.40;99.90;;;;;;2617170;39;20578;-79
2022/08/16 03:04:25;;;;;;;10.37;9.47;;;19.30;99.90;;;;;;2616180;54;20402;-77
2022/08/16 03:10:13;;;;;;;9.20;8.60;;;19.00;99.90;;;;;;2619271;54;20570;-86
2022/08/16 03:16:01;;;;;;;15.10;9.27;;;19.00;99.90;;;;;;2619468;39;20535;-85
2022/08/16 03:21:49;;;;;;;10.13;9.23;;;18.80;99.90;;;;;;2619391;39;20166;-83
2022/08/16 03:27:37;;;;;;;10.87;9.97;;;18.50;99.90;;;;;;2620337;54;20132;-84
2022/08/16 03:33:25;;;;;;;10.70;9.80;;;18.30;99.90;;;;;;2619524;54;20455;-82
2022/08/16 03:39:13;;;;;;;10.87;9.97;;;18.40;99.90;;;;;;2618899;54;20422;-83
2022/08/16 03:45:01;;;;;;;10.93;9.83;;;18.10;99.90;;;;;;2619840;31;20538;-85
2022/08/16 03:50:50;;;;;;;11.37;10.47;;;18.00;99.90;;;;;;2618769;54;20245;-83
2022/08/16 03:56:41;;;;;;;10.57;9.83;;;18.00;99.90;;;;;;2618502;54;20423;-83
2022/08/16 04:02:28;;;;;;;11.47;10.40;;;18.20;99.90;;;;;;2615851;54;20467;-75
2022/08/16 04:08:20;;;;;;;12.23;11.13;;;18.50;99.90;;;;;;2618056;54;20149;-84
2022/08/16 04:14:08;;;;;;;11.50;10.60;;;18.60;99.90;;;;;;2620234;54;20496;-84
2022/08/16 04:19:57;;;;;;;11.43;10.43;;;18.40;99.90;;;;;;2619136;54;20220;-83
2022/08/16 04:25:45;;;;;;;11.37;10.37;;;18.30;99.90;;;;;;2618584;54;20170;-83
2022/08/16 04:31:33;;;;;;;10.57;9.73;;;18.20;99.90;;;;;;2619976;54;20471;-82
2022/08/16 04:40:46;;;;;;;10.17;9.27;;;18.40;99.90;;;;;;2620512;54;20384;-85
2022/08/16 04:46:34;;;;;;;9.07;8.47;;;18.40;99.90;;;;;;2620311;46;20416;-84
2022/08/16 04:52:23;;;;;;;10.30;9.30;;;18.50;99.90;;;;;;2620428;54;20126;-84
2022/08/16 04:58:11;;;;;;;10.23;9.37;;;18.70;99.90;;;;;;2621149;54;20391;-84
2022/08/16 05:03:59;;;;;;;10.47;8.83;;;18.80;99.90;;;;;;2620346;54;20530;-84
2022/08/16 05:09:47;;;;;;;9.40;8.70;;;19.10;99.90;;;;;;2620178;54;20126;-85
2022/08/16 05:15:35;;;;;;;9.77;8.97;;;19.10;99.90;;;;;;2620813;54;20133;-85
2022/08/16 05:21:23;;;;;;;8.90;8.10;;;19.20;99.90;;;;;;2620163;54;20400;-86
2022/08/16 05:27:11;;;;;;;9.57;8.80;;;19.50;99.90;;;;;;2618980;54;20428;-82
2022/08/16 05:32:59;;;;;;;8.77;8.17;;;20.00;99.90;;;;;;2618970;54;20183;-82
2022/08/16 05:36:18;;;;;;;9.47;8.67;;;20.60;99.90;;;;;;2618278;54;20419;-84
2022/08/16 05:38:44;;;;;;;9.60;8.80;;;21.00;99.90;;;;;;2619641;51;20169;-83
2022/08/16 05:44:32;;;;;;;10.07;9.23;;;21.60;99.90;;;;;;2619710;54;20942;-84
2022/08/16 05:50:20;;;;;;;8.57;7.97;;;21.80;99.50;;;;;;2619294;54;20122;-85
2022/08/16 05:56:09;;;;;;;13.10;10.20;;;22.20;93.40;;;;;;2620334;54;20125;-83
2022/08/16 06:01:57;;;;;;;10.03;9.13;;;22.30;92.90;;;;;;2620834;54;20444;-85
2022/08/16 06:07:45;;;;;;;9.47;8.77;;;22.60;82.50;;;;;;2620631;54;20393;-82
2022/08/16 06:13:34;;;;;;;9.90;9.07;;;22.30;73.40;;;;;;2623512;54;20155;-81
2022/08/16 06:19:22;;;;;;;10.20;9.17;;;22.90;70.50;;;;;;2623046;54;20409;-83
2022/08/16 06:25:11;;;;;;;8.60;7.90;;;22.60;69.90;;;;;;2623636;54;20378;-82
2022/08/16 06:30:59;;;;;;;9.93;9.13;;;23.20;67.90;;;;;;2622650;54;20501;-83
2022/08/16 06:40:50;;;;;;;9.13;8.53;;;23.20;62.70;;;;;;2623214;54;20397;-81
2022/08/16 06:46:37;;;;;;;8.30;7.70;;;23.00;66.10;;;;;;2623613;54;20379;-84
2022/08/16 06:52:25;;;;;;;8.93;8.07;;;23.50;57.00;;;;;;2622905;54;20134;-83
2022/08/16 06:58:14;;;;;;;9.63;8.73;;;23.00;57.40;;;;;;2623553;54;20177;-80
2022/08/16 07:04:02;;;;;;;9.53;8.93;;;24.00;53.90;;;;;;2623989;54;20383;-84
2022/08/16 07:09:50;;;;;;;9.97;9.07;;;24.10;45.80;;;;;;2624516;54;20427;-84
2022/08/16 07:15:37;;;;;;;10.00;9.30;;;24.20;41.20;;;;;;2624186;54;20138;-82
2022/08/16 07:21:25;;;;;;;10.60;9.80;;;24.60;41.60;;;;;;2623671;54;20171;-84
2022/08/16 07:27:14;;;;;;;10.70;9.60;;;24.70;33.80;;;;;;2624558;39;20307;-87
2022/08/16 07:33:04;;;;;;;9.93;9.17;;;25.20;32.50;;;;;;2623743;54;20414;-84
2022/08/16 07:36:21;;;;;;;10.83;9.93;;;26.30;29.70;;;;;;2623882;46;20494;-83
2022/08/16 07:38:46;;;;;;;10.80;9.03;;;25.20;30.30;;;;;;2624477;39;20490;-84
2022/08/16 07:44:34;;;;;;;10.07;9.37;;;25.60;30.30;;;;;;2623894;54;20162;-83
2022/08/16 07:50:22;;;;;;;10.00;9.17;;;26.20;30.20;;;;;;2623041;54;20150;-80
2022/08/16 07:56:10;;;;;;;9.80;9.10;;;26.10;28.00;;;;;;2622935;54;20116;-81
2022/08/16 08:01:58;;;;;;;11.80;10.60;;;26.20;27.70;;;;;;2622109;54;20141;-82
2022/08/16 08:07:46;;;;;;;10.67;9.73;;;26.10;25.70;;;;;;2622887;54;20146;-84
2022/08/16 08:13:34;;;;;;;11.10;10.07;;;27.00;26.60;;;;;;2623167;54;20138;-82
2022/08/16 08:19:23;;;;;;;11.07;10.10;;;26.80;23.00;;;;;;2623660;54;20383;-82
2022/08/16 08:25:12;;;;;;;10.17;9.27;;;27.20;19.20;;;;;;2623995;54;20458;-80
2022/08/16 08:31:02;;;;;;;10.90;9.70;;;27.50;17.00;;;;;;2622940;54;20409;-80
2022/08/16 08:40:49;;;;;;;10.13;9.53;;;27.20;14.90;;;;;;2624170;54;20434;-85
2022/08/16 08:46:37;;;;;;;11.47;10.60;;;28.40;13.20;;;;;;2624135;54;20457;-84
2022/08/16 08:52:25;;;;;;;11.93;11.07;;;27.90;11.90;;;;;;2624656;54;20424;-84
2022/08/16 08:58:13;;;;;;;12.13;10.93;;;27.30;11.50;;;;;;2624094;54;20137;-83
2022/08/16 09:04:02;;;;;;;11.00;9.93;;;27.80;10.70;;;;;;2624281;54;20125;-83
2022/08/16 09:09:50;;;;;;;12.13;11.03;;;27.20;11.60;;;;;;2623862;54;20471;-82
2022/08/16 09:15:38;;;;;;;11.10;10.30;;;28.00;11.70;;;;;;2624691;54;20149;-84
2022/08/16 09:21:26;;;;;;;11.10;10.20;;;27.50;7.70;;;;;;2624269;54;20397;-82
2022/08/16 09:27:14;;;;;;;11.47;10.50;;;28.30;6.00;;;;;;2624491;54;20389;-82
2022/08/16 09:33:04;;;;;;;11.13;10.30;;;28.90;5.40;;;;;;2624466;54;20132;-83
2022/08/16 09:36:19;;;;;;;11.30;10.20;;;30.10;5.00;;;;;;2623871;47;20415;-83
2022/08/16 09:38:44;;;;;;;10.70;9.70;;;29.80;3.20;;;;;;2623240;54;20601;-84
2022/08/16 09:44:34;;;;;;;11.53;10.57;;;28.30;2.50;;;;;;2623636;54;20120;-84
2022/08/16 09:50:25;;;;;;;9.87;9.23;;;29.20;4.50;;;;;;2624670;54;20409;-84
2022/08/16 10:02:51;;;;;;;9.83;9.13;;;30.10;3.70;;;;;;2625067;54;20394;-83
2022/08/16 10:08:39;;;;;;;10.43;9.63;;;28.50;2.60;;;;;;2624764;54;20381;-84
2022/08/16 10:14:29;;;;;;;10.73;10.13;;;29.80;2.20;;;;;;2624063;54;20150;-82
2022/08/16 10:20:17;;;;;;;12.50;11.33;;;29.70;1.00;;;;;;2624767;54;20457;-85
2022/08/16 10:26:05;;;;;;;10.83;10.17;;;29.30;1.90;;;;;;2624443;54;20129;-82
2022/08/16 10:31:52;;;;;;;11.50;10.63;;;30.90;1.00;;;;;;2624925;54;20107;-87
2022/08/16 10:41:10;;;;;;;12.10;11.20;;;28.60;1.00;;;;;;2625324;54;20441;-86
2022/08/16 10:46:58;;;;;;;11.87;11.10;;;30.30;1.00;;;;;;2624954;54;20388;-83
2022/08/16 10:52:47;;;;;;;10.27;9.67;;;31.30;1.00;;;;;;2624726;54;20195;-84
2022/08/16 10:58:37;;;;;;;10.53;9.83;;;29.80;1.00;;;;;;2618311;54;20424;-76
2022/08/16 11:04:25;;;;;;;9.93;9.33;;;30.40;1.00;;;;;;2616573;54;20962;-76
2022/08/16 11:10:15;;;;;;;10.20;9.50;;;30.80;1.00;;;;;;2616423;54;20383;-76
2022/08/16 11:16:05;;;;;;;11.57;10.77;;;31.70;1.00;;;;;;2616472;54;20398;-76
2022/08/16 11:21:53;;;;;;;10.70;9.83;;;31.00;1.00;;;;;;2616392;54;20434;-76
2022/08/16 11:27:41;;;;;;;11.37;10.30;;;30.50;1.00;;;;;;2616611;54;20384;-79
2022/08/16 11:33:29;;;;;;;10.83;9.40;;;31.70;1.00;;;;;;2616446;54;20553;-77
2022/08/16 11:36:33;;;;;;;9.50;9.00;;;31.40;1.00;;;;;;2615580;54;20391;-77
2022/08/16 11:38:59;;;;;;;9.97;9.27;;;29.90;1.00;;;;;;2616641;39;20550;-76
2022/08/16 11:44:46;;;;;;;9.83;9.07;;;30.30;1.00;;;;;;2617015;54;20133;-77
2022/08/16 11:50:34;;;;;;;9.33;8.53;;;30.60;1.00;;;;;;2617109;54;20126;-79
2022/08/16 11:56:23;;;;;;;10.40;9.70;;;30.40;1.00;;;;;;2617308;54;20360;-77
2022/08/16 12:02:10;;;;;;;8.73;8.13;;;30.60;1.00;;;;;;2616641;54;20383;-77
2022/08/16 12:07:59;;;;;;;9.03;8.33;;;31.30;1.00;;;;;;2616903;54;20650;-77
2022/08/16 12:13:47;;;;;;;9.90;9.10;;;31.40;1.00;;;;;;2617040;54;20129;-76
2022/08/16 12:19:35;;;;;;;9.10;8.60;;;31.80;1.00;;;;;;2617147;54;20485;-78
2022/08/16 12:25:25;;;;;;;9.80;9.20;;;30.40;1.00;;;;;;2617292;54;20407;-78
2022/08/16 12:31:13;;;;;;;9.30;8.60;;;30.70;1.00;;;;;;2616989;54;20392;-77
2022/08/16 12:41:10;;;;;;;9.13;8.43;;;30.30;1.00;;;;;;2617005;54;20367;-77
2022/08/16 12:53:04;;;;;;;9.83;8.90;;;31.50;1.00;;;;;;2616511;54;20501;-77
2022/08/16 12:58:54;;;;;;;9.43;8.67;;;30.90;1.00;;;;;;2617189;54;20495;-77
2022/08/16 13:04:42;;;;;;;10.00;9.25;;;29.70;1.00;;;;;;2616606;54;20409;-76
2022/08/16 13:10:29;;;;;;;10.70;9.87;;;29.20;1.00;;;;;;2616807;54;20130;-77
2022/08/16 13:16:17;;;;;;;10.57;9.77;;;29.20;1.00;;;;;;2616967;54;20644;-77
2022/08/16 13:22:05;;;;;;;10.87;9.90;;;29.90;1.00;;;;;;2616589;54;20122;-77
2022/08/16 13:27:54;;;;;;;9.70;8.90;;;30.90;1.00;;;;;;2616790;54;20463;-77
2022/08/16 13:33:42;;;;;;;9.50;8.63;;;31.30;1.00;;;;;;2616789;54;20465;-77
2022/08/16 13:39:31;;;;;;;9.50;8.80;;;30.90;1.00;;;;;;2616629;54;20449;-76
2022/08/16 13:42:53;;;;;;;9.73;8.90;;;30.20;1.00;;;;;;2617142;39;20759;-78
2022/08/16 13:48:40;;;;;;;9.27;8.60;;;30.60;1.00;;;;;;2623551;54;20388;-83
2022/08/16 13:54:28;;;;;;;11.43;10.33;;;29.80;1.00;;;;;;2625829;54;20142;-84
2022/08/16 14:00:17;;;;;;;10.83;10.03;;;29.70;1.00;;;;;;2622770;54;20389;-85
2022/08/16 14:06:09;;;;;;;11.20;10.20;;;28.80;1.00;;;;;;2622315;54;20400;-84
2022/08/16 14:08:54;;;;;;;11.33;10.33;;;29.30;1.00;;;;;;2622749;54;20461;-83
2022/08/16 14:11:20;;;;;;;10.30;9.50;;;29.40;1.00;;;;;;2621614;54;21044;-83
2022/08/16 14:17:07;;;;;;;10.80;9.80;;;29.70;1.00;;;;;;2623791;54;20168;-83
2022/08/16 14:22:55;;;;;;;10.47;9.70;;;30.20;1.00;;;;;;2620065;54;20161;-85
2022/08/16 14:28:43;;;;;;;9.30;8.73;;;30.30;1.00;;;;;;2619492;54;20143;-87
2022/08/16 14:34:31;;;;;;;11.03;9.90;;;31.30;1.00;;;;;;2624995;54;20151;-84
2022/08/16 14:40:21;;;;;;;10.50;9.50;;;30.30;1.00;;;;;;2622218;54;20764;-86
2022/08/16 14:46:09;;;;;;;10.03;9.23;;;30.30;1.00;;;;;;2623023;54;20397;-85
2022/08/16 14:58:25;;;;;;;11.53;10.73;;;29.80;1.00;;;;;;2620445;39;20775;-84
2022/08/16 15:04:13;;;;;;;11.60;10.80;;;30.80;1.00;;;;;;2619799;39;20437;-86
2022/08/16 15:10:01;;;;;;;12.30;11.20;;;30.20;1.00;;;;;;2619642;39;20619;-86
2022/08/16 15:15:50;;;;;;;11.43;10.60;;;29.60;1.00;;;;;;2619331;54;20417;-87
2022/08/16 15:21:38;;;;;;;10.80;10.10;;;29.70;1.00;;;;;;2619405;54;20407;-85
2022/08/16 15:27:28;;;;;;;12.33;10.50;;;29.40;1.00;;;;;;2621310;54;20123;-84
2022/08/16 15:33:19;;;;;;;11.33;10.43;;;29.50;1.00;;;;;;2621992;54;20384;-83
2022/08/16 15:39:07;;;;;;;11.13;10.40;;;29.70;1.00;;;;;;2626544;54;20444;-84
2022/08/16 15:44:55;;;;;;;10.50;9.80;;;31.90;1.00;;;;;;2626715;54;20132;-84
2022/08/16 15:50:43;;;;;;;11.23;10.30;;;31.10;1.00;;;;;;2626420;54;20137;-85
2022/08/16 15:56:33;;;;;;;11.70;10.37;;;30.00;1.00;;;;;;2625693;54;20554;-84
2022/08/16 16:02:23;;;;;;;10.43;9.63;;;29.20;1.00;;;;;;2624525;54;20414;-84
2022/08/16 16:08:12;;;;;;;10.87;10.17;;;29.20;1.00;;;;;;2628171;54;20397;-81
2022/08/16 16:14:01;;;;;;;11.00;10.20;;;29.00;1.00;;;;;;2627480;54;20393;-85
2022/08/16 16:19:49;;;;;;;11.93;11.13;;;29.00;1.00;;;;;;2627923;54;20375;-85
2022/08/16 16:25:39;;;;;;;11.00;10.20;;;28.90;1.00;;;;;;2627468;54;20130;-83
2022/08/16 16:31:27;;;;;;;10.07;9.27;;;28.80;1.00;;;;;;2629054;54;20453;-83
2022/08/16 16:37:15;;;;;;;11.03;10.10;;;28.90;1.00;;;;;;2617689;39;20773;-84
2022/08/16 16:43:03;;;;;;;10.80;10.00;;;28.80;1.00;;;;;;2617552;54;20386;-86
2022/08/16 16:48:52;;;;;;;11.20;10.20;;;28.70;1.00;;;;;;2618709;54;20390;-85
2022/08/16 16:54:40;;;;;;;11.00;9.93;;;28.90;1.00;;;;;;2618534;54;20410;-85
2022/08/16 17:00:27;;;;;;;10.43;9.73;;;29.40;1.00;;;;;;2618064;46;20148;-85
2022/08/16 17:06:16;;;;;;;12.43;10.90;;;30.30;1.00;;;;;;2617603;54;20130;-85
2022/08/16 17:12:03;;;;;;;12.33;11.53;;;29.20;1.00;;;;;;2619196;54;20386;-85
2022/08/16 17:17:53;;;;;;;11.87;10.87;;;28.90;1.00;;;;;;2624214;54;20121;-86
2022/08/16 17:23:41;;;;;;;10.47;9.60;;;29.10;1.00;;;;;;2620851;54;20381;-86
2022/08/16 17:29:29;;;;;;;10.87;10.03;;;28.80;1.00;;;;;;2618243;54;21024;-85
2022/08/16 17:35:23;;;;;;;11.60;10.33;;;28.60;1.00;;;;;;2618129;54;20242;-85
2022/08/16 17:41:12;;;;;;;15.20;14.00;;;28.50;1.00;;;;;;2617665;54;21092;-85
2022/08/16 17:46:59;;;;;;;11.33;10.17;;;28.20;1.00;;;;;;2619418;39;20772;-82
2022/08/16 17:52:53;;;;;;;12.73;11.53;;;28.00;1.00;;;;;;2618253;54;20135;-86
2022/08/16 17:58:41;;;;;;;16.20;14.77;;;27.60;1.00;;;;;;2617301;54;20382;-76
2022/08/16 18:04:29;;;;;;;13.10;11.90;;;27.30;1.00;;;;;;2616725;54;20159;-78
2022/08/16 18:10:19;;;;;;;11.97;10.77;;;27.00;1.00;;;;;;2616305;54;20426;-76
2022/08/16 18:16:08;;;;;;;10.50;9.47;;;26.70;1.20;;;;;;2617028;54;20383;-76
2022/08/16 18:28:03;;;;;;;18.07;13.43;;;26.00;4.20;;;;;;2616546;54;20438;-77
2022/08/16 18:33:51;;;;;;;14.63;12.73;;;25.80;7.00;;;;;;2616582;54;20957;-76
2022/08/16 18:43:41;;;;;;;33.00;14.23;;;25.30;12.10;;;;;;2616394;54;20435;-78
2022/08/16 18:49:28;;;;;;;35.00;14.27;;;25.20;12.10;;;;;;2616241;54;20402;-79
2022/08/16 18:55:17;;;;;;;42.33;13.40;;;25.00;12.90;;;;;;2616554;54;20615;-76
2022/08/16 19:01:05;;;;;;;30.37;13.87;;;24.90;11.60;;;;;;2616364;54;20492;-77
2022/08/16 19:06:53;;;;;;;14.60;11.80;;;24.60;12.00;;;;;;2616211;54;20162;-77
2022/08/16 19:12:41;;;;;;;14.73;11.23;;;24.50;12.00;;;;;;2616361;54;20384;-77
2022/08/16 19:18:30;;;;;;;12.60;10.77;;;24.30;12.70;;;;;;2616310;54;20119;-76
2022/08/16 19:24:17;;;;;;;11.23;10.43;;;24.10;13.90;;;;;;2616514;54;20484;-76
2022/08/16 19:30:06;;;;;;;11.37;10.37;;;23.90;13.90;;;;;;2616287;54;20134;-76
2022/08/16 19:35:55;;;;;;;11.50;10.70;;;23.60;14.70;;;;;;2616327;54;20438;-80
2022/08/16 19:41:46;;;;;;;14.20;11.30;;;23.50;17.60;;;;;;2616085;54;20542;-78
2022/08/16 19:45:11;;;;;;;12.00;10.93;;;23.40;16.70;;;;;;2615496;54;20415;-77
2022/08/16 19:50:59;;;;;;;12.90;11.70;;;23.30;19.40;;;;;;2617136;54;20400;-81
2022/08/16 19:56:47;;;;;;;12.20;11.10;;;23.20;20.80;;;;;;2617748;54;20383;-81
2022/08/16 20:02:40;;;;;;;12.60;11.17;;;23.00;22.90;;;;;;2616241;54;20145;-78
2022/08/16 20:08:28;;;;;;;16.10;11.50;;;22.90;25.30;;;;;;2616654;54;20419;-78
2022/08/16 20:14:15;;;;;;;11.20;10.30;;;22.90;28.30;;;;;;2616575;54;20646;-78
2022/08/16 20:20:04;;;;;;;13.17;11.80;;;22.70;32.10;;;;;;2616933;39;20525;-78
2022/08/16 20:25:54;;;;;;;13.00;11.80;;;22.70;30.90;;;;;;2616547;54;20399;-78
2022/08/16 20:31:42;;;;;;;13.97;11.70;;;22.50;34.30;;;;;;2616221;54;20387;-78
2022/08/16 20:37:31;;;;;;;12.90;11.77;;;22.40;36.90;;;;;;2616905;31;20708;-77
2022/08/16 20:40:36;;;;;;;13.30;12.20;;;22.30;36.30;;;;;;2615466;54;20419;-77
2022/08/16 20:46:43;;;;;;;14.77;11.60;;;22.20;40.30;;;;;;2616216;54;20423;-80
2022/08/16 20:52:31;;;;;;;15.63;13.17;;;22.10;41.90;;;;;;2616393;54;20407;-77
2022/08/16 20:58:19;;;;;;;12.00;10.80;;;22.10;45.20;;;;;;2616748;39;20790;-77
2022/08/16 21:04:06;;;;;;;14.03;12.50;;;22.10;45.00;;;;;;2617084;31;20555;-78
2022/08/16 21:09:54;;;;;;;16.90;11.97;;;22.10;44.70;;;;;;2616253;46;20281;-80
2022/08/16 21:15:42;;;;;;;13.90;12.47;;;22.30;44.30;;;;;;2617461;39;20859;-85
2022/08/16 21:21:30;;;;;;;12.87;11.53;;;22.30;43.20;;;;;;2616815;54;20166;-85
2022/08/16 21:27:18;;;;;;;12.30;11.10;;;22.30;44.80;;;;;;2616622;54;20200;-78
2022/08/16 21:33:07;;;;;;;14.03;12.63;;;22.20;47.10;;;;;;2616070;54;20908;-80
2022/08/16 21:38:55;;;;;;;13.97;12.53;;;22.10;50.00;;;;;;2616428;54;20909;-77
2022/08/16 21:44:53;;;;;;;12.93;11.07;;;22.20;51.20;;;;;;2614936;47;20135;-84
2022/08/16 21:50:43;;;;;;;13.53;12.57;;;22.10;53.50;;;;;;2614477;54;20395;-77
2022/08/16 21:56:30;;;;;;;13.40;12.10;;;22.20;52.50;;;;;;2615379;39;20897;-85
2022/08/16 22:02:19;;;;;;;13.80;12.60;;;22.20;52.70;;;;;;2615143;54;20389;-84
2022/08/16 22:05:43;;;;;;;13.50;12.30;;;22.20;54.30;;;;;;2614897;46;20481;-84
2022/08/16 22:11:30;;;;;;;14.27;12.80;;;22.20;57.50;;;;;;2614637;54;20407;-77
2022/08/16 22:17:18;;;;;;;13.03;11.93;;;22.20;55.80;;;;;;2614380;54;20137;-77
2022/08/16 22:23:10;;;;;;;15.23;13.87;;;22.10;63.80;;;;;;2616178;39;20822;-78
2022/08/16 22:29:06;;;;;;;14.47;13.33;;;22.10;61.80;;;;;;2616300;54;21007;-78
2022/08/16 22:34:55;;;;;;;13.60;12.50;;;22.10;60.80;;;;;;2616207;54;20392;-79
2022/08/16 22:40:43;;;;;;;15.80;13.57;;;22.00;57.30;;;;;;2616019;54;20378;-85
2022/08/16 22:46:33;;;;;;;13.97;12.67;;;21.90;69.20;;;;;;2616259;54;20411;-85
2022/08/16 22:52:21;;;;;;;14.70;13.27;;;21.90;65.80;;;;;;2616296;54;20383;-85
2022/08/16 22:58:12;;;;;;;12.77;11.83;;;21.70;69.80;;;;;;2616542;54;20960;-84
2022/08/16 23:04:01;;;;;;;15.20;13.90;;;21.60;75.80;;;;;;2616878;31;20927;-85
2022/08/16 23:09:48;;;;;;;14.07;12.73;;;21.50;74.60;;;;;;2616631;54;20905;-85
2022/08/16 23:22:23;;;;;;;12.60;11.50;;;22.20;43.80;;;;;;2614526;54;20418;-79
2022/08/16 23:28:13;;;;;;;13.73;12.43;;;22.30;38.60;;;;;;2615541;54;20139;-81
2022/08/16 23:34:01;;;;;;;13.50;12.30;;;22.20;39.70;;;;;;2615573;54;20479;-80
2022/08/16 23:39:49;;;;;;;12.73;11.87;;;22.00;41.20;;;;;;2615418;54;20125;-77
2022/08/16 23:48:58;;;;;;;13.17;12.17;;;21.80;46.30;;;;;;2614690;54;20963;-78
2022/08/16 23:54:45;;;;;;;14.30;13.00;;;21.50;52.80;;;;;;2614680;54;20251;-78
